createdAt,value
2023-01-22T00:02:22.926Z,90.60
2023-01-22T00:04:55.040Z,90.50
2023-01-22T00:07:27.082Z,90.26
2023-01-22T00:10:00.246Z,90.86
2023-01-22T00:12:32.454Z,91.15
2023-01-22T00:15:05.181Z,91.64
2023-01-22T00:17:38.054Z,91.27
2023-01-22T00:20:12.533Z,90.74
2023-01-22T00:22:44.605Z,91.81
2023-01-22T00:25:16.688Z,91.38
2023-01-22T00:27:48.641Z,92.00
2023-01-22T00:30:26.680Z,91.53
2023-01-22T00:32:58.873Z,90.91
2023-01-22T00:35:31.255Z,91.14
2023-01-22T00:38:04.001Z,91.24
2023-01-22T00:40:36.197Z,91.06
2023-01-22T00:43:08.175Z,91.32
2023-01-22T00:45:40.224Z,90.49
2023-01-22T00:48:12.279Z,90.11
2023-01-22T00:50:44.346Z,89.50
2023-01-22T00:53:16.510Z,90.08
2023-01-22T00:55:58.713Z,89.81
2023-01-22T00:58:31.073Z,90.18
2023-01-22T01:01:04.677Z,89.78
2023-01-22T01:03:37.802Z,89.72
2023-01-22T01:06:31.712Z,89.39
2023-01-22T01:09:05.459Z,88.72
2023-01-22T01:12:03.749Z,87.74
2023-01-22T01:14:36.355Z,87.82
2023-01-22T01:17:08.403Z,87.39
2023-01-22T01:19:40.559Z,87.65
2023-01-22T01:22:12.745Z,87.49
2023-01-22T01:24:45.172Z,87.04
2023-01-22T01:27:18.093Z,86.35
2023-01-22T01:29:55.718Z,86.16
2023-01-22T01:32:28.787Z,86.21
2023-01-22T01:35:00.887Z,86.20
2023-01-22T01:37:36.221Z,85.62
2023-01-22T01:40:09.849Z,85.48
2023-01-22T01:42:46.810Z,85.68
2023-01-22T01:45:32.719Z,85.36
2023-01-22T01:48:38.531Z,85.42
2023-01-22T01:51:22.309Z,85.55
2023-01-22T01:53:55.258Z,84.72
2023-01-22T01:56:33.406Z,85.60
2023-01-22T01:59:12.080Z,85.49
2023-01-22T02:01:50.193Z,85.21
2023-01-22T02:04:24.179Z,85.80
2023-01-22T02:06:56.197Z,86.50
2023-01-22T02:09:28.211Z,85.69
2023-01-22T02:12:00.555Z,85.97
2023-01-22T02:14:37.712Z,87.70
2023-01-22T02:17:17.033Z,87.53
2023-01-22T02:19:49.137Z,88.09
2023-01-22T02:22:31.606Z,88.41
2023-01-22T02:25:04.279Z,87.96
2023-01-22T02:27:36.758Z,88.56
2023-01-22T02:30:17.120Z,88.10
2023-01-22T02:32:51.803Z,87.51
2023-01-22T02:35:27.801Z,88.08
2023-01-22T02:38:13.243Z,87.87
2023-01-22T02:40:49.510Z,87.26
2023-01-22T02:43:21.959Z,86.96
2023-01-22T02:45:54.892Z,87.60
2023-01-22T02:48:26.859Z,87.54
2023-01-22T02:50:58.939Z,87.30
2023-01-22T02:53:31.443Z,87.70
2023-01-22T02:56:11.461Z,87.76
2023-01-22T02:58:43.517Z,87.07
2023-01-22T03:01:25.263Z,86.41
2023-01-22T03:04:02.067Z,85.96
2023-01-22T03:06:34.054Z,87.00
2023-01-22T03:09:06.991Z,87.08
2023-01-22T03:11:41.843Z,86.78
2023-01-22T03:14:33.435Z,85.82
2023-01-22T03:17:26.548Z,86.31
2023-01-22T03:20:18.366Z,87.09
2023-01-22T03:22:50.600Z,88.26
2023-01-22T03:25:22.665Z,88.15
2023-01-22T03:28:16.489Z,87.95
2023-01-22T03:30:48.889Z,88.67
2023-01-22T03:33:20.880Z,88.20
2023-01-22T03:35:52.892Z,88.36
2023-01-22T03:38:25.001Z,87.62
2023-01-22T03:41:13.826Z,87.63
2023-01-22T03:43:46.988Z,87.81
2023-01-22T03:46:20.360Z,87.83
2023-01-22T03:48:53.159Z,88.07
2023-01-22T03:51:25.319Z,88.21
2023-01-22T03:53:59.184Z,88.41
2023-01-22T03:56:32.162Z,87.69
2023-01-22T03:59:07.776Z,87.92
2023-01-22T04:01:40.870Z,87.75
2023-01-22T04:04:12.931Z,87.57
2023-01-22T04:06:44.897Z,88.27
2023-01-22T04:09:16.955Z,88.68
2023-01-22T04:11:48.999Z,88.36
2023-01-22T04:14:20.990Z,88.26
2023-01-22T04:16:53.024Z,88.51
2023-01-22T04:19:27.149Z,88.59
2023-01-22T04:22:00.530Z,87.90
2023-01-22T04:24:32.509Z,88.78
2023-01-22T04:27:04.557Z,88.16
2023-01-22T04:29:44.080Z,87.86
2023-01-22T04:32:16.134Z,89.18
2023-01-22T04:34:48.335Z,88.17
2023-01-22T04:37:20.349Z,88.59
2023-01-22T04:39:52.371Z,88.26
2023-01-22T04:42:24.378Z,88.21
2023-01-22T04:44:56.547Z,88.41
2023-01-22T04:47:28.769Z,89.03
2023-01-22T04:50:00.933Z,89.00
2023-01-22T04:52:32.983Z,88.61
2023-01-22T04:55:06.122Z,87.90
2023-01-22T04:57:38.889Z,88.57
2023-01-22T05:00:12.829Z,88.55
2023-01-22T05:02:44.844Z,87.78
2023-01-22T05:05:26.400Z,88.17
2023-01-22T05:07:59.584Z,88.05
2023-01-22T05:10:31.825Z,88.64
2023-01-22T05:13:06.658Z,88.24
2023-01-22T05:15:39.008Z,87.92
2023-01-22T05:18:11.011Z,87.86
2023-01-22T05:20:43.046Z,87.13
2023-01-22T05:23:15.000Z,87.30
2023-01-22T05:25:50.560Z,87.97
2023-01-22T05:28:22.565Z,86.65
2023-01-22T05:30:54.679Z,86.88
2023-01-22T05:33:30.153Z,87.45
2023-01-22T05:36:03.687Z,87.84
2023-01-22T05:38:35.650Z,87.61
2023-01-22T05:41:07.628Z,87.65
2023-01-22T05:43:50.071Z,88.36
2023-01-22T05:46:28.217Z,87.99
2023-01-22T05:49:00.223Z,87.25
2023-01-22T05:51:32.612Z,87.26
2023-01-22T05:54:32.088Z,87.22
2023-01-22T05:57:06.087Z,87.66
2023-01-22T05:59:40.880Z,87.76
2023-01-22T06:02:12.924Z,87.86
2023-01-22T06:04:44.952Z,88.48
2023-01-22T06:07:16.911Z,88.11
2023-01-22T06:09:48.997Z,87.86
2023-01-22T06:12:21.022Z,87.83
2023-01-22T06:14:55.689Z,88.14
2023-01-22T06:17:27.647Z,88.33
2023-01-22T06:19:59.802Z,87.83
2023-01-22T06:22:31.847Z,88.58
2023-01-22T06:25:04.320Z,89.92
2023-01-22T06:27:36.309Z,89.17
2023-01-22T06:30:09.406Z,88.59
2023-01-22T06:32:41.393Z,88.40
2023-01-22T06:35:13.857Z,88.61
2023-01-22T06:37:45.963Z,89.23
2023-01-22T06:40:20.401Z,88.62
2023-01-22T06:42:52.628Z,89.26
2023-01-22T06:45:25.002Z,88.77
2023-01-22T06:47:58.211Z,89.73
2023-01-22T06:50:30.334Z,89.95
2023-01-22T06:53:02.300Z,89.06
2023-01-22T06:55:34.658Z,88.36
2023-01-22T06:58:16.778Z,88.37
2023-01-22T07:00:48.845Z,89.34
2023-01-22T07:03:22.918Z,88.89
2023-01-22T07:06:00.528Z,88.85
2023-01-22T07:08:33.897Z,89.82
2023-01-22T07:11:07.881Z,89.63
2023-01-22T07:13:40.128Z,89.21
2023-01-22T07:16:12.904Z,89.85
2023-01-22T07:18:45.030Z,89.34
2023-01-22T07:21:17.084Z,89.57
2023-01-22T07:23:49.194Z,89.56
2023-01-22T07:26:21.318Z,89.50
2023-01-22T07:28:53.489Z,89.15
2023-01-22T07:31:25.665Z,88.94
2023-01-22T07:34:01.641Z,88.42
2023-01-22T07:36:33.697Z,89.01
2023-01-22T07:39:16.626Z,88.79
2023-01-22T07:41:48.686Z,88.07
2023-01-22T07:44:29.233Z,89.06
2023-01-22T07:47:01.216Z,89.18
2023-01-22T07:49:33.160Z,89.24
2023-01-22T07:52:05.333Z,89.44
2023-01-22T07:54:37.313Z,89.62
2023-01-22T07:57:14.506Z,89.72
2023-01-22T07:59:46.577Z,88.82
2023-01-22T08:02:19.031Z,88.86
2023-01-22T08:04:51.042Z,88.30
2023-01-22T08:07:23.540Z,88.71
2023-01-22T08:09:55.686Z,88.26
2023-01-22T08:12:27.685Z,88.77
2023-01-22T08:14:59.659Z,88.75
2023-01-22T08:17:31.642Z,89.17
2023-01-22T08:20:04.971Z,89.29
2023-01-22T08:22:37.064Z,88.39
2023-01-22T08:25:09.939Z,89.15
2023-01-22T08:27:42.117Z,88.94
2023-01-22T08:30:16.155Z,89.23
2023-01-22T08:32:56.661Z,89.47
2023-01-22T08:35:29.907Z,89.10
2023-01-22T08:38:02.098Z,89.76
2023-01-22T08:40:35.644Z,88.67
2023-01-22T08:43:09.287Z,88.63
2023-01-22T08:45:41.716Z,88.62
2023-01-22T08:48:13.756Z,88.04
2023-01-22T08:50:46.097Z,88.17
2023-01-22T08:53:30.797Z,88.61
2023-01-22T08:56:02.889Z,88.52
2023-01-22T08:58:34.926Z,88.70
2023-01-22T09:01:07.172Z,88.86
2023-01-22T09:03:39.478Z,87.94
2023-01-22T09:06:12.268Z,88.45
2023-01-22T09:08:44.498Z,88.07
2023-01-22T09:11:17.168Z,88.38
2023-01-22T09:13:49.172Z,87.47
2023-01-22T09:16:21.670Z,87.80
2023-01-22T09:21:42.184Z,89.20
2023-01-22T09:24:14.429Z,89.36
2023-01-22T09:26:46.584Z,88.54
2023-01-22T09:29:18.548Z,87.95
2023-01-22T09:31:51.423Z,88.55
2023-01-22T09:34:23.599Z,89.14
2023-01-22T09:36:55.655Z,89.15
2023-01-22T09:39:27.635Z,89.45
2023-01-22T09:42:02.659Z,88.57
2023-01-22T09:44:39.594Z,88.69
2023-01-22T09:47:17.673Z,88.88
2023-01-22T09:50:27.982Z,89.10
2023-01-22T09:53:06.431Z,88.34
2023-01-22T09:58:52.046Z,86.72
2023-01-22T10:01:24.917Z,86.56
2023-01-22T10:04:04.043Z,87.76
2023-01-22T10:06:36.434Z,88.06
2023-01-22T10:09:08.304Z,87.49
2023-01-22T10:11:41.143Z,86.85
2023-01-22T10:14:18.118Z,87.47
2023-01-22T10:16:50.403Z,87.09
2023-01-22T10:19:32.949Z,86.86
2023-01-22T10:22:21.433Z,86.92
2023-01-22T10:24:54.285Z,86.74
2023-01-22T10:27:41.013Z,86.27
2023-01-22T10:30:24.023Z,86.23
2023-01-22T10:33:07.175Z,86.28
2023-01-22T10:35:46.540Z,85.33
2023-01-22T10:38:30.759Z,86.92
2023-01-22T10:41:04.569Z,87.06
2023-01-22T10:43:39.185Z,87.94
2023-01-22T10:46:24.570Z,88.19
2023-01-22T10:49:03.836Z,88.30
2023-01-22T10:51:40.483Z,87.41
2023-01-22T10:54:54.650Z,87.12
2023-01-22T10:57:43.988Z,87.38
2023-01-22T11:00:37.084Z,86.92
2023-01-22T11:03:34.922Z,87.00
2023-01-22T11:06:15.708Z,87.20
2023-01-22T11:09:08.708Z,86.17
2023-01-22T11:11:59.205Z,86.06
2023-01-22T11:14:36.923Z,86.54
2023-01-22T11:17:27.765Z,84.94
2023-01-22T11:20:32.864Z,85.24
2023-01-22T11:24:02.016Z,85.41
2023-01-22T11:27:24.467Z,85.73
2023-01-22T11:30:09.070Z,86.00
2023-01-22T11:32:50.048Z,85.80
2023-01-22T11:36:36.567Z,85.28
2023-01-22T11:39:38.544Z,85.33
2023-01-22T11:42:27.810Z,85.33
2023-01-22T11:46:11.286Z,84.96
2023-01-22T11:49:07.607Z,85.27
2023-01-22T11:52:32.099Z,83.99
2023-01-22T11:55:22.561Z,83.57
2023-01-22T11:58:12.398Z,84.45
2023-01-22T12:01:45.159Z,84.60
2023-01-22T12:05:31.012Z,84.14
2023-01-22T12:08:54.729Z,84.49
2023-01-22T12:11:51.248Z,84.22
2023-01-22T12:14:47.691Z,83.90
2023-01-22T12:17:57.723Z,82.99
2023-01-22T12:20:59.989Z,83.81
2023-01-22T12:23:51.426Z,84.98
2023-01-22T12:26:30.047Z,85.71
2023-01-22T12:29:37.207Z,84.98
2023-01-22T12:32:15.430Z,85.08
2023-01-22T12:35:01.568Z,83.52
2023-01-22T12:37:48.298Z,85.63
2023-01-22T12:41:08.324Z,84.98
2023-01-22T12:44:55.059Z,83.49
2023-01-22T12:48:35.198Z,83.64
2023-01-22T12:51:47.732Z,83.82
2023-01-22T12:54:29.945Z,83.78
2023-01-22T12:57:17.555Z,81.18
2023-01-22T12:59:56.885Z,82.25
2023-01-22T13:02:35.751Z,83.18
2023-01-22T13:05:19.352Z,83.10
2023-01-22T13:08:08.135Z,82.58
2023-01-22T13:10:40.239Z,82.83
2023-01-22T13:13:40.173Z,84.32
2023-01-22T13:16:35.006Z,84.75
2023-01-22T13:19:24.048Z,85.72
2023-01-22T13:22:00.882Z,86.93
2023-01-22T13:24:33.350Z,86.84
2023-01-22T13:27:05.562Z,86.17
2023-01-22T13:29:39.471Z,86.03
2023-01-22T13:32:23.269Z,86.09
2023-01-22T13:35:06.739Z,87.05
2023-01-22T13:37:41.480Z,86.63
2023-01-22T13:40:23.234Z,87.35
2023-01-22T13:42:56.768Z,87.46
2023-01-22T13:46:04.406Z,88.14
2023-01-22T13:48:36.371Z,87.90
2023-01-22T13:51:18.631Z,88.15
2023-01-22T13:53:54.679Z,88.57
2023-01-22T13:56:28.033Z,88.17
2023-01-22T13:59:18.834Z,88.00
2023-01-22T14:01:52.327Z,89.04
2023-01-22T14:04:37.429Z,89.02
2023-01-22T14:07:20.717Z,89.02
2023-01-22T14:09:54.417Z,88.31
2023-01-22T14:12:27.508Z,88.76
2023-01-22T14:14:59.638Z,89.70
2023-01-22T14:17:37.244Z,89.93
2023-01-22T14:20:10.477Z,89.36
2023-01-22T14:22:42.525Z,89.86
2023-01-22T14:25:14.916Z,89.86
2023-01-22T14:27:50.770Z,89.55
2023-01-22T14:30:22.904Z,89.46
2023-01-22T14:32:54.983Z,90.01
2023-01-22T14:35:30.323Z,90.25
2023-01-22T14:38:02.436Z,89.92
2023-01-22T14:40:35.043Z,89.91
2023-01-22T14:43:07.203Z,90.67
2023-01-22T14:45:56.368Z,90.12
2023-01-22T14:48:28.517Z,89.91
2023-01-22T14:51:00.618Z,90.28
2023-01-22T14:53:39.647Z,90.92
2023-01-22T14:56:11.734Z,90.86
2023-01-22T14:58:43.780Z,90.79
2023-01-22T15:01:19.903Z,90.55
2023-01-22T15:03:59.023Z,90.60
2023-01-22T15:06:59.962Z,90.78
2023-01-22T15:09:32.313Z,91.02
2023-01-22T15:12:04.986Z,90.64
2023-01-22T15:14:37.069Z,90.80
2023-01-22T15:17:09.096Z,90.69
2023-01-22T15:20:01.193Z,91.36
2023-01-22T15:22:33.283Z,91.13
2023-01-22T15:25:06.216Z,91.27
2023-01-22T15:27:38.659Z,90.72
2023-01-22T15:30:12.825Z,90.83
2023-01-22T15:32:44.934Z,90.58
2023-01-22T15:35:17.251Z,90.61
2023-01-22T15:37:49.388Z,90.59
2023-01-22T15:40:21.978Z,90.40
2023-01-22T15:42:54.397Z,90.68
2023-01-22T15:45:59.552Z,90.83
2023-01-22T15:48:31.607Z,91.03
2023-01-22T15:51:12.489Z,90.74
2023-01-22T15:53:56.236Z,90.77
2023-01-22T15:56:32.585Z,90.96
2023-01-22T15:59:05.802Z,91.10
2023-01-22T16:01:40.203Z,91.46
2023-01-22T16:04:12.265Z,92.11
2023-01-22T16:06:44.774Z,91.86
2023-01-22T16:09:21.777Z,92.19
2023-01-22T16:11:53.952Z,92.51
2023-01-22T16:14:28.132Z,93.25
2023-01-22T16:17:00.817Z,93.66
2023-01-22T16:19:59.523Z,94.56
2023-01-22T16:25:40.341Z,96.22
2023-01-22T16:28:12.374Z,97.34
2023-01-22T16:30:50.383Z,97.76
2023-01-22T16:33:29.636Z,97.88
2023-01-22T16:36:03.789Z,97.91
2023-01-22T16:38:37.007Z,98.29
2023-01-22T16:41:24.278Z,98.66
2023-01-22T16:44:12.826Z,99.15
2023-01-22T16:46:52.455Z,100.00
2023-01-22T16:49:35.040Z,100.00
2023-01-22T16:52:21.884Z,100.00
2023-01-22T16:54:55.068Z,100.00
2023-01-22T16:57:27.142Z,100.00
2023-01-22T16:59:59.389Z,100.00
2023-01-22T17:02:31.917Z,100.00
2023-01-22T17:05:06.761Z,100.00
2023-01-22T17:07:40.656Z,100.00
2023-01-22T17:10:13.144Z,100.00
2023-01-22T17:12:48.739Z,100.00
2023-01-22T17:15:22.615Z,100.00
2023-01-22T17:17:54.997Z,100.00
2023-01-22T17:20:27.255Z,100.00
2023-01-22T17:22:59.675Z,100.00
2023-01-22T17:25:31.757Z,100.00
2023-01-22T17:28:04.003Z,100.00
2023-01-22T17:30:36.269Z,100.00
2023-01-22T17:33:08.482Z,100.00
2023-01-22T17:35:42.110Z,100.00
2023-01-22T17:38:14.586Z,100.00
2023-01-22T17:40:46.606Z,100.00
2023-01-22T17:43:18.802Z,100.00
2023-01-22T17:45:51.490Z,100.00
2023-01-22T17:48:23.728Z,100.00
2023-01-22T17:51:02.325Z,100.00
2023-01-22T17:53:38.313Z,100.00
2023-01-22T17:56:24.304Z,100.00
2023-01-22T17:59:00.508Z,99.77
2023-01-22T18:01:35.224Z,99.28
2023-01-22T18:04:10.688Z,99.70
2023-01-22T18:06:43.979Z,99.69
2023-01-22T18:09:16.434Z,99.61
2023-01-22T18:11:48.874Z,99.25
2023-01-22T18:14:25.547Z,99.24
2023-01-22T18:16:57.828Z,99.28
2023-01-22T18:19:30.032Z,99.53
2023-01-22T18:22:02.196Z,99.28
2023-01-22T18:24:36.371Z,99.09
2023-01-22T18:27:08.430Z,98.59
2023-01-22T18:29:41.524Z,99.61
2023-01-22T18:32:13.621Z,98.95
2023-01-22T18:34:45.620Z,98.75
2023-01-22T18:37:17.635Z,98.92
2023-01-22T18:39:49.770Z,98.71
2023-01-22T18:42:21.863Z,98.64
2023-01-22T18:44:54.178Z,98.38
2023-01-22T18:47:26.258Z,98.05
2023-01-22T18:49:58.292Z,98.45
2023-01-22T18:52:30.414Z,98.39
2023-01-22T18:55:02.731Z,98.57
2023-01-22T18:57:37.077Z,98.30
2023-01-22T19:00:11.613Z,98.33
2023-01-22T19:02:43.882Z,99.13
2023-01-22T19:05:16.140Z,98.34
2023-01-22T19:07:48.227Z,98.01
2023-01-22T19:10:20.602Z,97.55
2023-01-22T19:12:52.603Z,98.32
2023-01-22T19:15:24.736Z,98.12
2023-01-22T19:17:56.839Z,98.53
2023-01-22T19:20:29.062Z,98.28
2023-01-22T19:23:01.223Z,97.78
2023-01-22T19:25:33.414Z,97.90
2023-01-22T19:28:07.782Z,97.49
2023-01-22T19:30:39.889Z,97.64
2023-01-22T19:33:12.031Z,98.24
2023-01-22T19:35:49.426Z,97.79
2023-01-22T19:38:22.169Z,98.09
2023-01-22T19:40:54.293Z,98.18
2023-01-22T19:43:26.423Z,98.61
2023-01-22T19:46:07.450Z,98.67
2023-01-22T19:48:40.973Z,98.47
2023-01-22T19:51:18.001Z,98.65
2023-01-22T19:53:50.401Z,98.31
2023-01-22T19:56:30.914Z,98.64
2023-01-22T19:59:17.054Z,98.36
2023-01-22T20:01:52.720Z,97.62
2023-01-22T20:04:33.655Z,98.02
2023-01-22T20:07:06.012Z,97.75
2023-01-22T20:09:47.403Z,98.09
2023-01-22T20:12:27.731Z,97.21
2023-01-22T20:14:59.939Z,97.62
2023-01-22T20:17:33.029Z,97.95
2023-01-22T20:20:11.077Z,98.54
2023-01-22T20:22:47.484Z,98.67
2023-01-22T20:25:21.921Z,98.84
2023-01-22T20:27:54.185Z,98.25
2023-01-22T20:30:26.953Z,98.36
2023-01-22T20:32:59.072Z,98.29
2023-01-22T20:35:32.290Z,98.25
2023-01-22T20:39:00.948Z,97.92
2023-01-22T20:41:34.542Z,97.59
2023-01-22T20:44:07.033Z,97.45
2023-01-22T20:46:41.490Z,97.66
2023-01-22T20:49:13.880Z,97.02
2023-01-22T20:51:46.281Z,96.44
2023-01-22T20:54:54.765Z,96.83
2023-01-22T20:57:34.084Z,96.66
2023-01-22T21:00:07.419Z,96.78
2023-01-22T21:02:39.576Z,96.75
2023-01-22T21:05:11.728Z,96.30
2023-01-22T21:07:43.741Z,96.19
2023-01-22T21:10:16.411Z,96.98
2023-01-22T21:12:48.710Z,96.72
2023-01-22T21:15:20.845Z,96.57
2023-01-22T21:17:54.796Z,96.52
2023-01-22T21:20:26.961Z,96.79
2023-01-22T21:23:01.611Z,96.70
2023-01-22T21:25:40.527Z,96.54
2023-01-22T21:28:15.848Z,96.91
2023-01-22T21:30:48.068Z,96.90
2023-01-22T21:33:20.137Z,96.25
2023-01-22T21:39:00.052Z,96.93
2023-01-22T21:41:34.168Z,96.75
2023-01-22T21:44:25.722Z,95.83
2023-01-22T21:46:57.875Z,96.76
2023-01-22T21:49:31.004Z,96.99
2023-01-22T21:55:57.505Z,97.29
2023-01-22T21:58:29.469Z,97.30
2023-01-22T22:01:24.083Z,97.03
2023-01-22T22:03:56.150Z,96.93
2023-01-22T22:06:32.944Z,97.41
2023-01-22T22:09:12.081Z,96.72
2023-01-22T22:11:45.398Z,96.79
2023-01-22T22:14:59.699Z,96.60
2023-01-22T22:17:31.865Z,96.75
2023-01-22T22:20:06.205Z,96.53
2023-01-22T22:22:38.353Z,97.17
2023-01-22T22:25:10.426Z,97.20
2023-01-22T22:27:45.185Z,97.23
2023-01-22T22:30:17.937Z,97.38
2023-01-22T22:32:50.315Z,97.43
2023-01-22T22:35:22.335Z,97.32
2023-01-22T22:38:01.723Z,97.95
2023-01-22T22:40:33.722Z,98.41
2023-01-22T22:43:05.978Z,97.92
2023-01-22T22:45:38.522Z,98.35
2023-01-22T22:48:10.573Z,98.67
2023-01-22T22:50:43.372Z,98.51
2023-01-22T22:53:31.003Z,98.59
2023-01-22T22:56:05.479Z,98.81
2023-01-22T22:58:38.387Z,98.61
2023-01-22T23:01:19.579Z,98.73
2023-01-22T23:03:53.639Z,98.78
2023-01-22T23:06:29.815Z,98.35
2023-01-22T23:09:04.536Z,98.27
2023-01-22T23:11:38.453Z,98.15
2023-01-22T23:14:14.603Z,98.15
2023-01-22T23:16:49.214Z,98.43
2023-01-22T23:19:25.688Z,98.23
2023-01-22T23:22:00.257Z,98.37
2023-01-22T23:24:32.751Z,98.22
2023-01-22T23:27:04.895Z,98.31
2023-01-22T23:29:37.024Z,98.47
2023-01-22T23:32:09.032Z,98.56
2023-01-22T23:34:41.415Z,98.43
2023-01-22T23:37:14.466Z,98.30
2023-01-22T23:42:33.014Z,98.63
2023-01-22T23:45:05.774Z,98.29
2023-01-22T23:47:37.906Z,98.32
2023-01-22T23:50:10.639Z,98.65
2023-01-22T23:52:43.909Z,98.29
2023-01-22T23:55:16.341Z,98.63
2023-01-22T23:57:48.299Z,98.49
